createdAt,value
2023-01-22T00:00:56.223Z,0.86
2023-01-22T00:03:46.721Z,0.88
2023-01-22T00:06:35.322Z,0.88
2023-01-22T00:09:23.322Z,0.88
2023-01-22T00:12:11.439Z,0.85
2023-01-22T00:14:59.261Z,0.86
2023-01-22T00:17:47.152Z,0.87
2023-01-22T00:20:35.200Z,0.85
2023-01-22T00:23:24.847Z,0.90
2023-01-22T00:26:16.044Z,0.92
2023-01-22T00:29:04.922Z,0.94
2023-01-22T00:31:53.017Z,0.94
2023-01-22T00:34:41.368Z,0.92
2023-01-22T00:37:29.148Z,0.91
2023-01-22T00:40:17.933Z,0.90
2023-01-22T00:43:05.941Z,0.89
2023-01-22T00:45:53.999Z,0.90
2023-01-22T00:48:42.329Z,0.92
2023-01-22T00:51:31.021Z,0.93
2023-01-22T00:54:18.810Z,0.94
2023-01-22T00:57:06.662Z,0.94
2023-01-22T00:59:54.700Z,0.94
2023-01-22T01:03:02.163Z,0.92
2023-01-22T01:06:07.994Z,0.91
2023-01-22T01:08:55.971Z,0.89
2023-01-22T01:11:43.788Z,0.88
2023-01-22T01:14:31.695Z,0.90
2023-01-22T01:17:19.949Z,0.91
2023-01-22T01:20:08.821Z,0.87
2023-01-22T01:22:56.681Z,0.84
2023-01-22T01:25:44.439Z,0.83
2023-01-22T01:28:34.403Z,0.82
2023-01-22T01:31:26.294Z,0.78
2023-01-22T01:34:17.394Z,0.78
2023-01-22T01:37:05.266Z,0.79
2023-01-22T01:39:53.087Z,0.78
2023-01-22T01:42:42.478Z,0.79
2023-01-22T01:45:34.783Z,0.76
2023-01-22T01:48:34.092Z,0.76
2023-01-22T01:51:34.018Z,0.74
2023-01-22T01:54:22.050Z,0.77
2023-01-22T01:57:17.083Z,0.77
2023-01-22T02:00:11.156Z,0.76
2023-01-22T02:03:02.207Z,0.77
2023-01-22T02:05:50.336Z,0.78
2023-01-22T02:08:41.473Z,0.80
2023-01-22T02:11:32.355Z,0.81
2023-01-22T02:14:32.488Z,0.81
2023-01-22T02:17:22.629Z,0.81
2023-01-22T02:20:12.207Z,0.81
2023-01-22T02:23:01.620Z,0.81
2023-01-22T02:25:50.076Z,0.83
2023-01-22T02:28:38.235Z,0.83
2023-01-22T02:31:26.599Z,0.82
2023-01-22T02:34:14.568Z,0.80
2023-01-22T02:37:04.077Z,0.77
2023-01-22T02:39:52.360Z,0.72
2023-01-22T02:42:40.126Z,0.70
2023-01-22T02:45:28.221Z,0.69
2023-01-22T02:48:16.231Z,0.67
2023-01-22T02:51:05.436Z,0.64
2023-01-22T02:53:54.737Z,0.61
2023-01-22T02:56:43.199Z,0.60
2023-01-22T02:59:31.607Z,0.60
2023-01-22T03:02:19.612Z,0.62
2023-01-22T03:05:09.014Z,0.66
2023-01-22T03:07:57.678Z,0.69
2023-01-22T03:10:46.205Z,0.71
2023-01-22T03:13:52.901Z,0.72
2023-01-22T03:17:01.137Z,0.70
2023-01-22T03:20:07.650Z,0.69
2023-01-22T03:22:55.376Z,0.64
2023-01-22T03:25:43.205Z,0.68
2023-01-22T03:28:31.913Z,0.70
2023-01-22T03:31:21.068Z,0.72
2023-01-22T03:34:09.115Z,0.72
2023-01-22T03:36:57.293Z,0.70
2023-01-22T03:39:45.229Z,0.68
2023-01-22T03:42:39.544Z,0.65
2023-01-22T03:45:27.721Z,0.63
2023-01-22T03:48:15.851Z,0.64
2023-01-22T03:51:15.814Z,0.65
2023-01-22T03:54:04.772Z,0.64
2023-01-22T03:56:52.694Z,0.60
2023-01-22T03:59:47.813Z,0.56
2023-01-22T04:02:38.023Z,0.53
2023-01-22T04:05:28.298Z,0.52
2023-01-22T04:08:16.159Z,0.50
2023-01-22T04:11:05.509Z,0.50
2023-01-22T04:13:56.137Z,0.45
2023-01-22T04:16:45.022Z,0.52
2023-01-22T04:19:50.832Z,0.51
2023-01-22T04:23:17.157Z,0.53
2023-01-22T04:26:05.080Z,0.55
2023-01-22T04:28:53.332Z,0.55
2023-01-22T04:31:42.861Z,0.53
2023-01-22T04:34:39.812Z,0.51
2023-01-22T04:37:50.723Z,0.49
2023-01-22T04:40:38.348Z,0.47
2023-01-22T04:43:26.383Z,0.47
2023-01-22T04:46:14.471Z,0.46
2023-01-22T04:49:02.408Z,0.45
2023-01-22T04:51:50.777Z,0.44
2023-01-22T04:54:38.663Z,0.40
2023-01-22T04:57:26.549Z,0.37
2023-01-22T05:00:15.401Z,0.36
2023-01-22T05:03:04.933Z,0.35
2023-01-22T05:05:52.838Z,0.35
2023-01-22T05:08:41.054Z,0.35
2023-01-22T05:11:30.305Z,0.36
2023-01-22T05:14:23.415Z,0.36
2023-01-22T05:17:11.255Z,0.32
2023-01-22T05:20:00.264Z,0.32
2023-01-22T05:22:48.739Z,0.32
2023-01-22T05:25:39.117Z,0.33
2023-01-22T05:28:27.132Z,0.33
2023-01-22T05:31:29.315Z,0.34
2023-01-22T05:34:22.339Z,0.33
2023-01-22T05:37:10.601Z,0.32
2023-01-22T05:39:58.580Z,0.31
2023-01-22T05:42:46.514Z,0.32
2023-01-22T05:45:35.279Z,0.34
2023-01-22T05:48:43.491Z,0.36
2023-01-22T05:51:34.747Z,0.37
2023-01-22T05:54:23.185Z,0.37
2023-01-22T05:57:11.645Z,0.37
2023-01-22T05:59:59.966Z,0.38
2023-01-22T06:02:48.609Z,0.39
2023-01-22T06:05:37.287Z,0.40
2023-01-22T06:08:28.061Z,0.40
2023-01-22T06:11:17.620Z,0.39
2023-01-22T06:14:06.653Z,0.39
2023-01-22T06:16:54.279Z,0.40
2023-01-22T06:19:56.521Z,0.40
2023-01-22T06:22:44.476Z,0.38
2023-01-22T06:25:32.619Z,0.38
2023-01-22T06:28:31.539Z,0.39
2023-01-22T06:31:19.966Z,0.42
2023-01-22T06:34:09.361Z,0.46
2023-01-22T06:36:57.677Z,0.47
2023-01-22T06:39:47.080Z,0.45
2023-01-22T06:42:42.528Z,0.42
2023-01-22T06:45:30.596Z,0.41
2023-01-22T06:48:19.791Z,0.43
2023-01-22T06:51:07.758Z,0.40
2023-01-22T06:53:56.641Z,0.38
2023-01-22T06:56:44.927Z,0.39
2023-01-22T06:59:35.671Z,0.38
2023-01-22T07:02:25.143Z,0.39
2023-01-22T07:05:13.078Z,0.42
2023-01-22T07:08:02.194Z,0.44
2023-01-22T07:10:50.302Z,0.47
2023-01-22T07:13:38.551Z,0.50
2023-01-22T07:16:26.919Z,0.54
2023-01-22T07:19:14.843Z,0.54
2023-01-22T07:22:02.716Z,0.53
2023-01-22T07:24:50.659Z,0.55
2023-01-22T07:27:38.648Z,0.55
2023-01-22T07:30:26.787Z,0.51
2023-01-22T07:33:16.394Z,0.50
2023-01-22T07:36:04.894Z,0.50
2023-01-22T07:38:53.768Z,0.51
2023-01-22T07:41:42.253Z,0.47
2023-01-22T07:44:32.925Z,0.45
2023-01-22T07:47:21.977Z,0.42
2023-01-22T07:50:11.350Z,0.40
2023-01-22T07:53:01.304Z,0.40
2023-01-22T07:55:49.107Z,0.43
2023-01-22T07:58:36.939Z,0.48
2023-01-22T08:01:24.987Z,0.48
2023-01-22T08:04:13.366Z,0.48
2023-01-22T08:07:01.596Z,0.48
2023-01-22T08:09:50.632Z,0.46
2023-01-22T08:12:41.406Z,0.44
2023-01-22T08:15:29.389Z,0.45
2023-01-22T08:18:19.109Z,0.47
2023-01-22T08:21:07.968Z,0.49
2023-01-22T08:23:55.782Z,0.48
2023-01-22T08:26:45.508Z,0.48
2023-01-22T08:29:33.700Z,0.46
2023-01-22T08:32:22.079Z,0.42
2023-01-22T08:35:10.578Z,0.42
2023-01-22T08:38:01.496Z,0.40
2023-01-22T08:40:53.816Z,0.40
2023-01-22T08:43:44.344Z,0.41
2023-01-22T08:46:32.473Z,0.42
2023-01-22T08:49:23.792Z,0.42
2023-01-22T08:52:12.152Z,0.42
2023-01-22T08:55:00.109Z,0.44
2023-01-22T08:57:56.061Z,0.47
2023-01-22T09:00:47.263Z,0.47
2023-01-22T09:03:36.450Z,0.49
2023-01-22T09:06:25.116Z,0.53
2023-01-22T09:09:13.093Z,0.53
2023-01-22T09:12:01.302Z,0.54
2023-01-22T09:14:49.141Z,0.55
2023-01-22T09:17:37.135Z,0.56
2023-01-22T09:20:25.192Z,0.59
2023-01-22T09:23:15.522Z,0.60
2023-01-22T09:26:03.970Z,0.56
2023-01-22T09:28:52.134Z,0.51
2023-01-22T09:31:40.262Z,0.44
2023-01-22T09:34:28.489Z,0.39
2023-01-22T09:37:16.809Z,0.38
2023-01-22T09:40:05.488Z,0.37
2023-01-22T09:43:17.749Z,0.35
2023-01-22T09:46:17.315Z,0.31
2023-01-22T09:49:18.280Z,0.28
2023-01-22T09:52:06.746Z,0.29
2023-01-22T09:54:54.475Z,0.30
2023-01-22T09:57:47.114Z,0.31
2023-01-22T10:00:50.749Z,0.32
2023-01-22T10:03:46.604Z,0.33
2023-01-22T10:06:34.855Z,0.39
2023-01-22T10:09:24.211Z,0.41
2023-01-22T10:12:14.265Z,0.39
2023-01-22T10:15:01.927Z,0.40
2023-01-22T10:17:50.630Z,0.39
2023-01-22T10:20:40.676Z,0.39
2023-01-22T10:23:34.170Z,0.44
2023-01-22T10:26:38.990Z,0.47
2023-01-22T10:29:36.319Z,0.49
2023-01-22T10:32:30.174Z,0.47
2023-01-22T10:35:21.130Z,0.47
2023-01-22T10:38:31.233Z,0.42
2023-01-22T10:41:21.371Z,0.43
2023-01-22T10:44:21.788Z,0.46
2023-01-22T10:47:21.197Z,0.49
2023-01-22T10:50:17.233Z,0.47
2023-01-22T10:53:15.443Z,0.46
2023-01-22T10:56:07.728Z,0.46
2023-01-22T10:58:58.844Z,0.44
2023-01-22T11:01:48.703Z,0.45
2023-01-22T11:04:37.016Z,0.48
2023-01-22T11:07:32.771Z,0.51
2023-01-22T11:10:55.045Z,0.54
2023-01-22T11:13:57.258Z,0.58
2023-01-22T11:16:49.975Z,0.61
2023-01-22T11:19:52.090Z,0.66
2023-01-22T11:22:45.919Z,0.66
2023-01-22T11:26:03.398Z,0.68
2023-01-22T11:29:34.213Z,0.71
2023-01-22T11:32:55.757Z,0.77
2023-01-22T11:36:01.942Z,0.79
2023-01-22T11:39:09.195Z,0.84
2023-01-22T11:42:10.141Z,0.89
2023-01-22T11:45:57.579Z,0.92
2023-01-22T11:49:24.919Z,0.92
2023-01-22T11:52:33.943Z,0.87
2023-01-22T11:56:12.649Z,0.91
2023-01-22T11:59:27.642Z,0.90
2023-01-22T12:03:05.014Z,0.85
2023-01-22T12:06:44.915Z,0.82
2023-01-22T12:09:35.771Z,0.80
2023-01-22T12:12:41.573Z,0.80
2023-01-22T12:15:56.298Z,0.83
2023-01-22T12:19:32.487Z,0.89
2023-01-22T12:22:38.658Z,0.95
2023-01-22T12:26:00.283Z,0.98
2023-01-22T12:29:14.489Z,0.95
2023-01-22T12:32:25.440Z,0.95
2023-01-22T12:35:21.335Z,0.96
2023-01-22T12:38:18.074Z,0.93
2023-01-22T12:41:39.515Z,0.91
2023-01-22T12:44:47.488Z,0.88
2023-01-22T12:47:59.192Z,0.88
2023-01-22T12:50:58.136Z,0.88
2023-01-22T12:53:56.901Z,0.90
2023-01-22T12:56:45.638Z,0.96
2023-01-22T12:59:36.244Z,0.96
2023-01-22T13:02:29.786Z,0.96
2023-01-22T13:05:39.161Z,0.95
2023-01-22T13:08:41.935Z,1.01
2023-01-22T13:11:40.016Z,1.04
2023-01-22T13:14:31.700Z,1.03
2023-01-22T13:17:30.629Z,1.08
2023-01-22T13:20:20.166Z,1.09
2023-01-22T13:23:21.375Z,1.12
2023-01-22T13:26:26.858Z,1.13
2023-01-22T13:29:38.768Z,1.14
2023-01-22T13:32:29.364Z,1.14
2023-01-22T13:35:19.784Z,1.13
2023-01-22T13:38:23.341Z,1.14
2023-01-22T13:41:25.769Z,1.12
2023-01-22T13:44:23.678Z,1.12
2023-01-22T13:47:41.069Z,1.11
2023-01-22T13:50:31.640Z,1.10
2023-01-22T13:53:29.534Z,1.07
2023-01-22T13:56:21.247Z,1.09
2023-01-22T13:59:22.416Z,1.09
2023-01-22T14:02:19.815Z,1.06
2023-01-22T14:05:20.133Z,1.09
2023-01-22T14:08:13.935Z,1.10
2023-01-22T14:11:01.610Z,1.08
2023-01-22T14:13:53.165Z,1.14
2023-01-22T14:16:41.694Z,1.13
2023-01-22T14:19:29.423Z,1.13
2023-01-22T14:22:18.311Z,1.12
2023-01-22T14:25:07.366Z,1.10
2023-01-22T14:28:00.054Z,1.09
2023-01-22T14:30:48.974Z,1.04
2023-01-22T14:33:36.821Z,1.03
2023-01-22T14:36:24.732Z,1.03
2023-01-22T14:39:12.428Z,1.01
2023-01-22T14:42:01.350Z,1.00
2023-01-22T14:44:49.147Z,1.02
2023-01-22T14:47:37.204Z,1.02
2023-01-22T14:50:25.148Z,1.03
2023-01-22T14:53:14.719Z,1.06
2023-01-22T14:56:03.085Z,1.05
2023-01-22T14:58:51.333Z,0.98
2023-01-22T15:01:39.562Z,0.93
2023-01-22T15:04:27.823Z,0.89
2023-01-22T15:07:15.539Z,0.87
2023-01-22T15:10:06.402Z,0.87
2023-01-22T15:12:55.122Z,0.87
2023-01-22T15:15:42.899Z,0.86
2023-01-22T15:18:31.082Z,0.83
2023-01-22T15:21:19.287Z,0.80
2023-01-22T15:24:08.694Z,0.77
2023-01-22T15:26:56.413Z,0.73
2023-01-22T15:29:46.376Z,0.73
2023-01-22T15:32:34.385Z,0.74
2023-01-22T15:35:22.711Z,0.74
2023-01-22T15:38:10.477Z,0.74
2023-01-22T15:41:07.829Z,0.73
2023-01-22T15:44:01.247Z,0.69
2023-01-22T15:46:49.419Z,0.67
2023-01-22T15:49:38.026Z,0.67
2023-01-22T15:52:26.780Z,0.67
2023-01-22T15:55:14.818Z,0.66
2023-01-22T15:58:02.745Z,0.65
2023-01-22T16:00:50.881Z,0.63
2023-01-22T16:03:38.863Z,0.61
2023-01-22T16:06:31.187Z,0.61
2023-01-22T16:09:19.100Z,0.63
2023-01-22T16:12:07.555Z,0.64
2023-01-22T16:14:55.646Z,0.65
2023-01-22T16:17:43.638Z,0.67
2023-01-22T16:20:31.786Z,0.65
2023-01-22T16:23:19.602Z,0.63
2023-01-22T16:26:10.705Z,0.64
2023-01-22T16:29:01.499Z,0.67
2023-01-22T16:31:49.658Z,0.68
2023-01-22T16:34:37.678Z,0.69
2023-01-22T16:37:25.657Z,0.68
2023-01-22T16:40:14.336Z,0.67
2023-01-22T16:43:02.954Z,0.66
2023-01-22T16:45:50.508Z,0.67
2023-01-22T16:48:38.656Z,0.66
2023-01-22T16:51:33.315Z,0.63
2023-01-22T16:54:34.638Z,0.63
2023-01-22T16:57:23.369Z,0.61
2023-01-22T17:00:11.920Z,0.58
2023-01-22T17:03:00.560Z,0.56
2023-01-22T17:05:49.396Z,0.54
2023-01-22T17:08:38.248Z,0.52
2023-01-22T17:11:26.735Z,0.51
2023-01-22T17:14:18.927Z,0.54
2023-01-22T17:17:08.780Z,0.54
2023-01-22T17:19:56.865Z,0.54
2023-01-22T17:22:45.106Z,0.54
2023-01-22T17:25:34.221Z,0.52
2023-01-22T17:28:22.355Z,0.51
2023-01-22T17:31:16.926Z,0.51
2023-01-22T17:34:08.853Z,0.50
2023-01-22T17:36:57.263Z,0.51
2023-01-22T17:39:50.710Z,0.51
2023-01-22T17:42:38.647Z,0.51
2023-01-22T17:45:26.610Z,0.50
2023-01-22T17:48:15.000Z,0.47
2023-01-22T17:51:09.923Z,0.47
2023-01-22T17:54:01.758Z,0.49
2023-01-22T17:56:53.174Z,0.52
2023-01-22T17:59:41.755Z,0.52
2023-01-22T18:02:29.851Z,0.49
2023-01-22T18:05:18.291Z,0.44
2023-01-22T18:08:06.431Z,0.41
2023-01-22T18:10:54.671Z,0.35
2023-01-22T18:13:43.533Z,0.37
2023-01-22T18:16:35.396Z,0.36
2023-01-22T18:19:27.691Z,0.33
2023-01-22T18:22:15.772Z,0.30
2023-01-22T18:25:10.532Z,0.28
2023-01-22T18:27:58.278Z,0.26
2023-01-22T18:30:47.460Z,0.22
2023-01-22T18:33:38.877Z,0.24
2023-01-22T18:36:30.751Z,0.24
2023-01-22T18:39:20.818Z,0.26
2023-01-22T18:42:09.064Z,0.26
2023-01-22T18:44:57.256Z,0.25
2023-01-22T18:47:44.979Z,0.21
2023-01-22T18:50:36.566Z,0.16
2023-01-22T18:53:25.117Z,0.12
2023-01-22T18:56:13.461Z,0.06
2023-01-22T18:59:04.615Z,-0.02
2023-01-22T19:01:52.913Z,-0.05
2023-01-22T19:04:43.715Z,-0.07
2023-01-22T19:07:34.842Z,-0.07
2023-01-22T19:10:23.335Z,-0.08
2023-01-22T19:13:12.258Z,-0.12
2023-01-22T19:16:07.946Z,-0.12
2023-01-22T19:19:03.954Z,-0.13
2023-01-22T19:21:55.736Z,-0.12
2023-01-22T19:24:45.710Z,-0.10
2023-01-22T19:27:33.743Z,-0.10
2023-01-22T19:30:24.937Z,-0.09
2023-01-22T19:33:13.035Z,-0.08
2023-01-22T19:36:01.079Z,-0.07
2023-01-22T19:38:49.929Z,-0.07
2023-01-22T19:41:42.133Z,-0.05
2023-01-22T19:44:31.608Z,-0.03
2023-01-22T19:47:20.760Z,-0.01
2023-01-22T19:50:09.594Z,0.00
2023-01-22T19:52:57.822Z,-0.00
2023-01-22T19:55:45.850Z,-0.01
2023-01-22T19:58:33.712Z,-0.02
2023-01-22T20:01:22.038Z,-0.03
2023-01-22T20:04:20.452Z,-0.05
2023-01-22T20:07:08.552Z,-0.03
2023-01-22T20:09:56.941Z,-0.02
2023-01-22T20:12:49.463Z,-0.05
2023-01-22T20:15:39.743Z,-0.10
2023-01-22T20:18:29.016Z,-0.03
2023-01-22T20:21:18.839Z,-0.03
2023-01-22T20:24:07.655Z,-0.02
2023-01-22T20:26:58.156Z,-0.01
2023-01-22T20:29:45.882Z,-0.00
2023-01-22T20:32:33.864Z,0.01
2023-01-22T20:35:21.774Z,0.01
2023-01-22T20:38:10.228Z,-0.03
2023-01-22T20:41:05.180Z,-0.04
2023-01-22T20:43:54.312Z,-0.04
2023-01-22T20:46:44.589Z,-0.06
2023-01-22T20:49:33.525Z,-0.05
2023-01-22T20:52:21.433Z,-0.07
2023-01-22T20:55:10.548Z,-0.07
2023-01-22T20:57:58.749Z,-0.06
2023-01-22T21:00:47.252Z,-0.01
2023-01-22T21:03:35.995Z,0.04
2023-01-22T21:06:27.653Z,0.07
2023-01-22T21:09:18.092Z,0.09
2023-01-22T21:12:06.386Z,0.11
2023-01-22T21:14:55.704Z,0.12
2023-01-22T21:17:44.545Z,0.11
2023-01-22T21:20:32.921Z,0.10
2023-01-22T21:23:20.623Z,0.09
2023-01-22T21:26:19.381Z,0.11
2023-01-22T21:29:15.913Z,0.12
2023-01-22T21:32:04.020Z,0.11
2023-01-22T21:34:51.851Z,0.11
2023-01-22T21:37:40.097Z,0.09
2023-01-22T21:40:28.179Z,0.09
2023-01-22T21:43:38.059Z,0.06
2023-01-22T21:46:32.956Z,0.05
2023-01-22T21:49:24.420Z,0.05
2023-01-22T21:52:12.136Z,0.05
2023-01-22T21:55:00.110Z,0.04
2023-01-22T21:57:48.134Z,0.03
2023-01-22T22:00:36.036Z,0.01
2023-01-22T22:03:23.841Z,-0.04
2023-01-22T22:06:13.486Z,-0.02
2023-01-22T22:09:04.535Z,-0.02
2023-01-22T22:11:57.349Z,-0.02
2023-01-22T22:14:45.049Z,-0.04
2023-01-22T22:17:33.090Z,-0.03
2023-01-22T22:20:21.331Z,-0.05
2023-01-22T22:23:09.427Z,-0.07
2023-01-22T22:25:58.640Z,-0.06
2023-01-22T22:28:46.665Z,-0.08
2023-01-22T22:31:35.745Z,-0.07
2023-01-22T22:34:23.794Z,-0.06
2023-01-22T22:37:11.896Z,-0.09
2023-01-22T22:39:59.644Z,-0.08
2023-01-22T22:42:47.664Z,-0.06
2023-01-22T22:45:38.351Z,-0.08
2023-01-22T22:48:26.523Z,-0.08
2023-01-22T22:51:24.253Z,-0.10
2023-01-22T22:54:18.419Z,-0.11
2023-01-22T22:57:08.827Z,-0.12
2023-01-22T22:59:57.657Z,-0.13
2023-01-22T23:02:47.189Z,-0.14
2023-01-22T23:05:39.842Z,-0.15
2023-01-22T23:08:27.665Z,-0.17
2023-01-22T23:11:16.199Z,-0.19
2023-01-22T23:14:05.531Z,-0.19
2023-01-22T23:16:53.263Z,-0.18
2023-01-22T23:19:41.174Z,-0.17
2023-01-22T23:22:29.124Z,-0.15
2023-01-22T23:25:18.051Z,-0.13
2023-01-22T23:28:05.970Z,-0.11
2023-01-22T23:30:55.078Z,-0.11
2023-01-22T23:33:44.303Z,-0.10
2023-01-22T23:36:32.833Z,-0.09
2023-01-22T23:39:21.826Z,-0.08
2023-01-22T23:42:10.523Z,-0.08
2023-01-22T23:44:58.544Z,-0.08
2023-01-22T23:47:46.655Z,-0.11
2023-01-22T23:50:34.578Z,-0.13
2023-01-22T23:53:22.854Z,-0.14
2023-01-22T23:56:12.237Z,-0.14
2023-01-22T23:59:00.457Z,-0.16
